createdAt,value
2023-07-01T04:02:10.949Z,98988.06
2023-07-01T04:06:13.595Z,98981.13
2023-07-01T04:10:17.543Z,98984.28
2023-07-01T04:14:20.134Z,98980.69
2023-07-01T04:18:25.019Z,98968.53
2023-07-01T04:22:27.561Z,98965.06
2023-07-01T04:26:30.115Z,98963.75
2023-07-01T04:30:32.716Z,98965.06
2023-07-01T04:34:37.562Z,98952.78
2023-07-01T04:38:40.099Z,98947.09
2023-07-01T04:42:51.089Z,98954.66
2023-07-01T04:46:53.657Z,98947.97
2023-07-01T04:50:57.722Z,98943.78
2023-07-01T04:55:00.313Z,98942.03
2023-07-01T04:59:02.898Z,98939.97
2023-07-01T05:03:05.786Z,98941.44
2023-07-01T05:07:09.827Z,98949.97
2023-07-01T05:11:12.771Z,98942.31
2023-07-01T05:15:15.303Z,98931.75
2023-07-01T05:19:17.950Z,98927.97
2023-07-01T05:23:21.954Z,98925.53
2023-07-01T05:27:24.545Z,98925.50
2023-07-01T05:31:27.109Z,98918.41
2023-07-01T05:35:29.696Z,98920.63
2023-07-01T05:39:33.604Z,98914.91
2023-07-01T05:43:36.297Z,98908.31
2023-07-01T05:47:38.992Z,98906.94
2023-07-01T05:51:41.631Z,98896.16
2023-07-01T05:55:45.518Z,98892.38
2023-07-01T05:59:48.085Z,98892.34
2023-07-01T06:03:50.670Z,98895.75
2023-07-01T06:07:53.249Z,98891.09
2023-07-01T06:11:57.239Z,98890.25
2023-07-01T06:15:59.824Z,98878.66
2023-07-01T06:20:04.929Z,98880.19
2023-07-01T06:24:09.120Z,98878.72
2023-07-01T06:28:13.099Z,98878.56
2023-07-01T06:32:15.775Z,98868.25
2023-07-01T06:36:19.357Z,98868.16
2023-07-01T06:40:21.987Z,98865.81
2023-07-01T06:44:25.924Z,98857.34
2023-07-01T06:48:28.558Z,98858.56
2023-07-01T06:52:32.159Z,98840.22
2023-07-01T06:56:34.736Z,98845.00
2023-07-01T07:00:38.602Z,98836.91
2023-07-01T07:04:41.173Z,98839.34
2023-07-01T07:08:44.041Z,98837.91
2023-07-01T07:12:46.597Z,98839.19
2023-07-01T07:16:50.526Z,98826.97
2023-07-01T07:20:53.070Z,98821.28
2023-07-01T07:24:55.605Z,98808.94
2023-07-01T07:28:58.117Z,98814.13
2023-07-01T07:33:02.013Z,98813.91
2023-07-01T07:37:05.569Z,98811.13
2023-07-01T07:41:08.134Z,98818.91
2023-07-01T07:45:11.594Z,98812.09
2023-07-01T07:49:15.505Z,98801.34
2023-07-01T07:53:18.056Z,98797.84
2023-07-01T07:57:20.703Z,98790.81
2023-07-01T08:01:23.260Z,98780.09
2023-07-01T08:05:29.106Z,98775.78
2023-07-01T08:09:32.158Z,98765.34
2023-07-01T08:13:34.700Z,98768.38
2023-07-01T08:17:37.383Z,98759.13
2023-07-01T08:21:41.308Z,98759.75
2023-07-01T08:25:44.931Z,98759.91
2023-07-01T08:29:47.457Z,98752.38
2023-07-01T08:33:49.998Z,98748.88
2023-07-01T08:37:53.956Z,98744.53
2023-07-01T08:42:01.239Z,98750.00
2023-07-01T08:46:05.435Z,98749.72
2023-07-01T08:50:09.837Z,98742.81
2023-07-01T08:54:15.626Z,98749.72
2023-07-01T08:58:18.187Z,98731.06
2023-07-01T09:02:24.315Z,98730.56
2023-07-01T09:06:26.934Z,98736.59
2023-07-01T09:10:30.865Z,98739.31
2023-07-01T09:15:00.712Z,98730.56
2023-07-01T09:19:07.634Z,98715.72
2023-07-01T09:23:10.225Z,98724.97
2023-07-01T09:27:14.140Z,98720.47
2023-07-01T09:31:17.918Z,98716.91
2023-07-01T09:35:20.569Z,98714.00
2023-07-01T09:39:33.861Z,98712.34
2023-07-01T09:43:37.725Z,98691.16
2023-07-01T09:47:40.341Z,98701.22
2023-07-01T09:51:51.309Z,98701.63
2023-07-01T09:55:53.893Z,98704.03
2023-07-01T09:59:58.141Z,98707.19
2023-07-01T10:04:00.950Z,98695.91
2023-07-01T10:08:03.768Z,98691.94
2023-07-01T10:12:07.849Z,98695.47
2023-07-01T10:16:12.083Z,98691.69
2023-07-01T10:20:28.945Z,98676.56
2023-07-01T10:24:41.296Z,98676.97
2023-07-01T10:28:43.947Z,98671.44
2023-07-01T10:32:47.839Z,98660.03
2023-07-01T10:37:14.880Z,98670.06
2023-07-01T10:41:53.583Z,98674.47
2023-07-01T10:46:13.380Z,98670.22
2023-07-01T10:50:18.560Z,98685.00
2023-07-01T10:54:31.044Z,98675.13
2023-07-01T10:58:33.640Z,98685.22
2023-07-01T11:02:41.225Z,98690.84
2023-07-01T11:06:49.921Z,98691.25
2023-07-01T11:10:53.441Z,98680.22
2023-07-01T11:14:56.438Z,98680.06
2023-07-01T11:19:01.208Z,98679.41
2023-07-01T11:23:05.317Z,98672.22
2023-07-01T11:27:09.520Z,98670.59
2023-07-01T11:31:13.546Z,98665.75
2023-07-01T11:35:16.264Z,98658.00
2023-07-01T11:39:20.868Z,98655.03
2023-07-01T11:43:23.892Z,98644.81
2023-07-01T11:47:26.503Z,98649.09
2023-07-01T11:51:38.337Z,98652.63
2023-07-01T11:55:42.255Z,98656.81
2023-07-01T11:59:46.884Z,98659.56
2023-07-01T12:03:49.505Z,98651.06
2023-07-01T12:07:56.157Z,98650.47
2023-07-01T12:12:00.281Z,98644.63
2023-07-01T12:16:02.884Z,98649.31
2023-07-01T12:20:09.697Z,98650.34
2023-07-01T12:24:20.400Z,98649.72
2023-07-01T12:28:24.248Z,98640.19
2023-07-01T12:32:27.245Z,98643.00
2023-07-01T12:36:30.313Z,98643.41
2023-07-01T12:40:32.905Z,98657.69
2023-07-01T12:44:36.777Z,98658.63
2023-07-01T12:48:39.308Z,98665.59
2023-07-01T12:52:42.002Z,98654.47
2023-07-01T12:56:44.550Z,98657.72
2023-07-01T13:01:05.456Z,98650.94
2023-07-01T13:05:12.003Z,98656.53
2023-07-01T13:09:14.848Z,98644.13
2023-07-01T13:13:17.391Z,98652.72
2023-07-01T13:17:34.693Z,98651.19
2023-07-01T13:21:40.238Z,98650.66
2023-07-01T13:25:42.946Z,98655.00
2023-07-01T13:29:45.460Z,98656.00
2023-07-01T13:33:50.091Z,98648.84
2023-07-01T13:38:02.973Z,98646.50
2023-07-01T13:42:05.835Z,98653.13
2023-07-01T13:46:08.428Z,98645.06
2023-07-01T13:50:19.598Z,98641.78
2023-07-01T13:54:24.640Z,98637.06
2023-07-01T13:58:27.975Z,98639.34
2023-07-01T14:02:30.991Z,98644.00
2023-07-01T14:06:40.135Z,98634.75
2023-07-01T14:10:43.552Z,98635.28
2023-07-01T14:14:48.138Z,98628.56
2023-07-01T14:18:51.871Z,98632.16
2023-07-01T14:23:00.421Z,98627.41
2023-07-01T14:27:04.011Z,98621.91
2023-07-01T14:31:09.447Z,98625.75
2023-07-01T14:35:12.177Z,98625.75
2023-07-01T14:39:25.678Z,98626.38
2023-07-01T14:43:28.439Z,98630.84
2023-07-01T14:47:31.037Z,98620.47
2023-07-01T14:51:33.754Z,98624.66
2023-07-01T14:55:37.720Z,98618.97
2023-07-01T14:59:40.285Z,98624.13
2023-07-01T15:03:44.020Z,98620.28
2023-07-01T15:07:47.149Z,98626.59
2023-07-01T15:11:50.928Z,98630.63
2023-07-01T15:15:53.510Z,98622.63
2023-07-01T15:19:56.121Z,98631.25
2023-07-01T15:23:58.676Z,98630.47
2023-07-01T15:28:02.648Z,98625.88
2023-07-01T15:32:05.686Z,98632.66
2023-07-01T15:36:08.184Z,98627.47
2023-07-01T15:40:11.309Z,98635.63
2023-07-01T15:44:15.321Z,98629.22
2023-07-01T15:48:17.876Z,98620.66
2023-07-01T15:52:20.406Z,98626.56
2023-07-01T15:56:22.946Z,98623.09
2023-07-01T16:00:27.107Z,98615.97
2023-07-01T16:04:36.054Z,98617.59
2023-07-01T16:08:38.630Z,98622.59
2023-07-01T16:12:42.568Z,98612.84
2023-07-01T16:16:46.500Z,98617.50
2023-07-01T16:21:05.541Z,98616.19
2023-07-01T16:25:09.178Z,98617.41
2023-07-01T16:29:11.821Z,98613.31
2023-07-01T16:33:17.931Z,98608.03
2023-07-01T16:37:21.149Z,98602.63
2023-07-01T16:41:27.174Z,98611.09
2023-07-01T16:45:37.922Z,98607.03
2023-07-01T16:49:41.777Z,98611.59
2023-07-01T16:53:45.696Z,98615.16
2023-07-01T16:57:48.669Z,98616.59
2023-07-01T17:01:52.031Z,98609.78
2023-07-01T17:05:56.095Z,98617.09
2023-07-01T17:10:04.684Z,98612.22
2023-07-01T17:14:07.403Z,98617.50
2023-07-01T17:18:17.324Z,98624.34
2023-07-01T17:22:23.736Z,98619.44
2023-07-01T17:26:26.745Z,98615.84
2023-07-01T17:30:29.412Z,98623.22
2023-07-01T17:34:50.283Z,98610.00
2023-07-01T17:38:54.158Z,98612.34
2023-07-01T17:42:56.676Z,98608.97
2023-07-01T17:46:59.209Z,98607.34
2023-07-01T17:51:01.770Z,98615.72
2023-07-01T17:55:09.473Z,98613.69
2023-07-01T17:59:13.890Z,98604.09
2023-07-01T18:03:16.650Z,98608.44
2023-07-01T18:07:19.279Z,98612.44
2023-07-01T18:11:23.179Z,98607.03
2023-07-01T18:15:25.842Z,98605.41
2023-07-01T18:19:28.447Z,98612.03
2023-07-01T18:23:30.996Z,98601.13
2023-07-01T18:27:35.857Z,98605.41
2023-07-01T18:31:40.349Z,98602.16
2023-07-01T18:35:43.062Z,98603.38
2023-07-01T18:39:45.910Z,98602.16
2023-07-01T18:43:49.895Z,98620.16
2023-07-01T18:47:52.465Z,98605.69
2023-07-01T18:51:55.129Z,98606.09
2023-07-01T18:55:57.707Z,98613.19
2023-07-01T19:00:01.659Z,98618.47
2023-07-01T19:04:04.751Z,98617.53
2023-07-01T19:08:07.311Z,98615.06
2023-07-01T19:12:10.928Z,98628.34
2023-07-01T19:16:14.894Z,98626.94
2023-07-01T19:20:40.295Z,98625.31
2023-07-01T19:24:42.813Z,98634.75
2023-07-01T19:28:45.510Z,98641.41
2023-07-01T19:32:49.409Z,98648.31
2023-07-01T19:36:52.014Z,98649.88
2023-07-01T19:40:54.804Z,98650.25
2023-07-01T19:44:57.328Z,98654.25
2023-07-01T19:49:02.084Z,98652.25
2023-07-01T19:53:04.652Z,98654.72
2023-07-01T19:57:07.286Z,98660.88
2023-07-01T20:01:09.890Z,98671.72
2023-07-01T20:05:13.928Z,98672.59
2023-07-01T20:09:16.667Z,98676.22
2023-07-01T20:13:19.220Z,98671.25
2023-07-01T20:17:23.096Z,98676.00
2023-07-01T20:21:27.020Z,98663.25
2023-07-01T20:25:29.572Z,98662.44
2023-07-01T20:29:32.128Z,98673.09
2023-07-01T20:33:34.692Z,98672.22
2023-07-01T20:37:38.821Z,98665.91
2023-07-01T20:41:42.855Z,98672.50
2023-07-01T20:45:48.669Z,98666.50
2023-07-01T20:49:51.514Z,98671.81
2023-07-01T20:53:55.440Z,98683.47
2023-07-01T20:57:57.976Z,98683.28
